Time;durP1;ratioP1;P1;durP2;ratioP2;P2;SDS_P1;SDS_P2;PMS_P1;PMS_P2;Temp;Humidity;BMP_temperature;BMP_pressure;BME280_temperature;BME280_humidity;BME280_pressure;Samples;Min_cycle;Max_cycle;Signal;HPM_P1;HPM_P2
2021/08/12 00:01:56;;;;;;;12.32;8.18;;;16.00;99.90;;;;;;6155498;23;20037;-89
2021/08/12 00:04:45;;;;;;;13.73;7.68;;;16.00;99.90;;;;;;6155154;23;20071;-90
2021/08/12 00:07:34;;;;;;;13.52;8.13;;;15.90;99.90;;;;;;6155461;23;20033;-88
2021/08/12 00:10:21;;;;;;;12.48;8.13;;;15.80;99.90;;;;;;6156463;23;20025;-89
2021/08/12 00:13:09;;;;;;;11.82;7.68;;;15.80;99.90;;;;;;6155761;23;20351;-89
2021/08/12 00:15:56;;;;;;;16.13;8.38;;;15.70;99.90;;;;;;6156318;23;20084;-89
2021/08/12 00:18:44;;;;;;;12.00;8.23;;;15.60;99.90;;;;;;6135822;23;20035;-91
2021/08/12 00:21:32;;;;;;;11.95;8.63;;;15.60;99.90;;;;;;6156032;23;20092;-88
2021/08/12 00:24:21;;;;;;;12.98;8.10;;;15.60;99.90;;;;;;6157748;23;20017;-90
2021/08/12 00:27:10;;;;;;;12.88;8.00;;;15.50;99.90;;;;;;6136978;23;20025;-88
2021/08/12 00:29:57;;;;;;;13.57;8.63;;;15.60;99.90;;;;;;6156807;23;20119;-88
2021/08/12 00:32:44;;;;;;;14.88;8.10;;;15.60;99.90;;;;;;6155976;23;20033;-89
2021/08/12 00:35:34;;;;;;;11.57;8.45;;;15.60;99.90;;;;;;6135539;23;20440;-89
2021/08/12 00:38:24;;;;;;;15.65;8.02;;;15.60;99.90;;;;;;6155797;23;20025;-90
2021/08/12 00:41:11;;;;;;;14.25;7.75;;;15.60;99.90;;;;;;6156740;23;20365;-91
2021/08/12 00:43:59;;;;;;;14.13;9.07;;;15.50;99.90;;;;;;6155725;23;20084;-89
2021/08/12 00:46:46;;;;;;;15.15;8.55;;;15.50;99.90;;;;;;6176799;23;20025;-89
2021/08/12 00:49:37;;;;;;;12.60;8.25;;;15.40;99.90;;;;;;6156205;23;20025;-90
2021/08/12 00:52:27;;;;;;;14.85;8.57;;;15.40;99.90;;;;;;6158158;23;20029;-89
2021/08/12 00:55:17;;;;;;;15.45;8.18;;;15.40;99.90;;;;;;6158560;23;20029;-88
2021/08/12 00:58:05;;;;;;;12.75;8.73;;;15.40;99.90;;;;;;6166559;23;20041;-90
2021/08/12 01:00:55;;;;;;;19.58;8.68;;;15.30;99.90;;;;;;6167505;23;20042;-89
2021/08/12 01:03:45;;;;;;;14.77;8.45;;;15.20;99.90;;;;;;6146634;23;20038;-90
2021/08/12 01:06:52;;;;;;;14.60;8.50;;;15.10;99.90;;;;;;6150241;23;20029;-87
2021/08/12 01:10:06;;;;;;;13.30;8.70;;;15.00;99.90;;;;;;6170795;23;20080;-88
2021/08/12 01:13:02;;;;;;;11.32;8.32;;;15.00;99.90;;;;;;6169242;23;20032;-89
2021/08/12 01:15:56;;;;;;;11.88;8.30;;;14.90;99.90;;;;;;6168100;23;20092;-87
2021/08/12 01:19:04;;;;;;;13.00;8.27;;;15.00;99.90;;;;;;6155994;23;20096;-89
2021/08/12 01:22:04;;;;;;;12.50;8.45;;;15.00;99.90;;;;;;6154911;23;20029;-89
2021/08/12 01:24:56;;;;;;;12.70;8.82;;;15.10;99.90;;;;;;6155298;23;20029;-89
2021/08/12 01:27:49;;;;;;;11.68;8.68;;;15.00;99.90;;;;;;6155478;23;20028;-89
2021/08/12 01:30:50;;;;;;;16.77;9.40;;;15.00;99.90;;;;;;6154424;23;20036;-88
2021/08/12 01:33:49;;;;;;;14.40;8.95;;;14.90;99.90;;;;;;6154412;23;20429;-91
2021/08/12 01:36:40;;;;;;;11.30;9.27;;;14.90;99.90;;;;;;6154114;23;20029;-89
2021/08/12 01:39:29;;;;;;;10.02;8.60;;;14.80;99.90;;;;;;6152888;23;20088;-88
2021/08/12 01:42:17;;;;;;;15.55;9.35;;;14.70;99.90;;;;;;6133857;23;20455;-89
2021/08/12 01:45:05;;;;;;;12.95;9.20;;;14.70;99.90;;;;;;6154645;23;20026;-89
2021/08/12 01:47:58;;;;;;;12.48;9.05;;;14.70;99.90;;;;;;6173717;23;20025;-89
2021/08/12 01:50:47;;;;;;;11.60;8.68;;;14.60;99.90;;;;;;6153554;23;20032;-89
2021/08/12 01:53:36;;;;;;;15.85;8.77;;;14.70;99.90;;;;;;6154328;23;20088;-89
2021/08/12 01:56:28;;;;;;;21.13;8.88;;;14.70;99.90;;;;;;6153471;23;20554;-89
2021/08/12 01:59:17;;;;;;;16.08;9.98;;;14.60;99.90;;;;;;6154353;23;20029;-90
2021/08/12 02:02:06;;;;;;;11.93;8.65;;;14.70;99.90;;;;;;6154051;23;20037;-88
2021/08/12 02:04:56;;;;;;;11.40;8.98;;;14.60;99.90;;;;;;6154020;23;20029;-90
2021/08/12 02:07:46;;;;;;;15.75;9.80;;;14.60;99.90;;;;;;6154386;23;20114;-89
2021/08/12 02:10:33;;;;;;;15.85;9.90;;;14.60;99.90;;;;;;6153921;23;20025;-89
2021/08/12 02:13:25;;;;;;;13.05;9.70;;;14.60;99.90;;;;;;6154109;23;20032;-90
2021/08/12 02:16:12;;;;;;;16.73;9.80;;;14.60;99.90;;;;;;6154603;23;20037;-91
2021/08/12 02:18:59;;;;;;;15.40;9.73;;;14.70;99.90;;;;;;6153119;23;20391;-89
2021/08/12 02:21:53;;;;;;;16.65;10.18;;;14.70;99.90;;;;;;6153278;23;20033;-89
2021/08/12 02:25:14;;;;;;;12.65;9.63;;;14.70;99.90;;;;;;6154962;23;20104;-89
2021/08/12 02:28:11;;;;;;;13.13;9.27;;;14.70;99.90;;;;;;6140944;23;20025;-89
2021/08/12 02:31:00;;;;;;;14.30;9.70;;;14.70;99.90;;;;;;6153894;23;20037;-90
2021/08/12 02:33:59;;;;;;;15.20;10.38;;;14.70;99.90;;;;;;6154107;23;20033;-88
2021/08/12 02:36:47;;;;;;;14.00;10.32;;;14.60;99.90;;;;;;6154854;23;20695;-90
2021/08/12 02:39:35;;;;;;;16.48;11.25;;;14.60;99.90;;;;;;6154332;23;20290;-89
2021/08/12 02:42:23;;;;;;;14.35;10.68;;;14.60;99.90;;;;;;6154785;23;20378;-89
2021/08/12 02:45:12;;;;;;;11.35;9.63;;;14.50;99.90;;;;;;6155094;23;20025;-89
2021/08/12 02:48:00;;;;;;;13.88;10.20;;;14.50;99.90;;;;;;6153938;23;20036;-89
2021/08/12 02:50:51;;;;;;;13.55;8.98;;;14.50;99.90;;;;;;6155604;23;20029;-89
2021/08/12 02:53:40;;;;;;;16.45;9.43;;;14.40;99.90;;;;;;6170390;23;20030;-90
2021/08/12 02:56:28;;;;;;;11.95;9.55;;;14.40;99.90;;;;;;6167232;23;20222;-90
2021/08/12 02:59:17;;;;;;;12.43;9.20;;;14.30;99.90;;;;;;6170746;23;20052;-89
2021/08/12 03:02:05;;;;;;;13.35;9.25;;;14.30;99.90;;;;;;6168634;23;20342;-90
2021/08/12 03:04:55;;;;;;;12.77;8.95;;;14.30;99.90;;;;;;6174358;23;20082;-91
2021/08/12 03:07:44;;;;;;;15.27;9.65;;;14.30;99.90;;;;;;6170173;23;20088;-89
2021/08/12 03:10:32;;;;;;;15.18;8.75;;;14.30;99.90;;;;;;6177416;23;20009;-88
2021/08/12 03:13:19;;;;;;;15.18;9.30;;;14.20;99.90;;;;;;6170150;23;20022;-90
2021/08/12 03:16:10;;;;;;;15.52;9.35;;;14.20;99.90;;;;;;6148630;23;20041;-89
2021/08/12 03:19:18;;;;;;;11.80;9.02;;;14.20;99.90;;;;;;6128523;23;20081;-88
2021/08/12 03:22:16;;;;;;;13.77;9.27;;;14.10;99.90;;;;;;6121892;23;20116;-90
2021/08/12 03:25:06;;;;;;;12.23;9.00;;;14.10;99.90;;;;;;6122480;23;20033;-89
2021/08/12 03:27:53;;;;;;;15.80;9.52;;;14.10;99.90;;;;;;6122421;23;20026;-89
2021/08/12 03:30:41;;;;;;;17.00;10.07;;;14.00;99.90;;;;;;6100397;23;20022;-89
2021/08/12 03:33:28;;;;;;;14.25;10.10;;;13.90;99.90;;;;;;6101655;23;20457;-89
2021/08/12 03:36:19;;;;;;;14.50;10.25;;;13.90;99.90;;;;;;6119813;23;20373;-90
2021/08/12 03:39:15;;;;;;;14.80;10.55;;;13.90;99.90;;;;;;6123335;23;20089;-89
2021/08/12 03:42:06;;;;;;;18.08;10.90;;;13.90;99.90;;;;;;6121369;23;20108;-88
2021/08/12 03:44:58;;;;;;;15.48;9.90;;;13.90;99.90;;;;;;6140009;23;20338;-88
2021/08/12 03:47:45;;;;;;;18.33;10.93;;;13.80;99.90;;;;;;6102756;23;20029;-90
2021/08/12 03:50:32;;;;;;;15.50;10.98;;;13.70;99.90;;;;;;6134446;23;20033;-90
2021/08/12 03:53:20;;;;;;;15.07;10.77;;;13.70;99.90;;;;;;6154605;23;20049;-89
2021/08/12 03:56:07;;;;;;;20.80;12.18;;;13.60;99.90;;;;;;6132482;23;20025;-90
2021/08/12 03:58:55;;;;;;;15.38;11.25;;;13.60;99.90;;;;;;6154294;23;20036;-88
2021/08/12 04:01:45;;;;;;;19.77;12.00;;;13.60;99.90;;;;;;6153510;23;20119;-89
2021/08/12 04:04:38;;;;;;;15.02;11.88;;;13.60;99.90;;;;;;6154283;23;20113;-89
2021/08/12 04:10:59;;;;;;;16.45;12.50;;;13.60;99.90;;;;;;6091338;23;20429;-88
2021/08/12 04:13:46;;;;;;;16.52;12.13;;;13.70;99.90;;;;;;6081151;23;20041;-87
2021/08/12 04:16:34;;;;;;;16.83;11.57;;;13.80;99.90;;;;;;6124297;23;20037;-90
2021/08/12 04:36:48;;;;;;;17.20;12.50;;;14.00;99.90;;;;;;6012948;23;20007;-92
2021/08/12 04:44:19;;;;;;;;;;;;;;;;;;;;;
2021/08/12 04:51:48;;;;;;;18.00;11.63;;;14.60;99.90;;;;;;5958353;24;20013;-92
2021/08/12 04:54:37;;;;;;;16.10;11.60;;;14.60;99.90;;;;;;5953678;24;20140;-89
2021/08/12 04:57:25;;;;;;;16.75;10.90;;;14.70;99.90;;;;;;6156708;23;20036;-91
2021/08/12 05:24:20;;;;;;;;;;;;;;;;;;;;;
2021/08/12 05:27:32;;;;;;;13.38;8.23;;;16.20;99.90;;;;;;6098453;23;20019;-92
2021/08/12 05:30:22;;;;;;;15.30;9.00;;;16.20;99.90;;;;;;6077054;23;20660;-92
2021/08/12 05:33:12;;;;;;;11.95;9.05;;;16.10;99.90;;;;;;6094999;23;20027;-92
2021/08/12 05:40:11;;;;;;;14.23;9.23;;;16.10;99.90;;;;;;6099901;23;20006;-92
2021/08/12 05:43:01;;;;;;;14.90;9.43;;;16.00;99.90;;;;;;6100090;23;20327;-90
2021/08/12 05:45:49;;;;;;;17.27;10.00;;;16.00;99.90;;;;;;6097243;23;20026;-91
2021/08/12 05:48:37;;;;;;;16.75;9.48;;;16.00;99.90;;;;;;6097126;23;20058;-89
2021/08/12 05:51:26;;;;;;;15.85;9.50;;;16.00;99.90;;;;;;6115872;23;20117;-91
2021/08/12 05:54:14;;;;;;;12.45;8.52;;;16.20;99.90;;;;;;6095766;23;20030;-89
2021/08/12 05:57:03;;;;;;;15.27;8.88;;;16.30;99.90;;;;;;6095468;23;20053;-90
2021/08/12 05:59:50;;;;;;;14.90;9.10;;;16.50;99.90;;;;;;6096214;23;20085;-89
2021/08/12 06:02:38;;;;;;;15.73;9.05;;;16.60;99.90;;;;;;6095948;23;20126;-91
2021/08/12 06:05:29;;;;;;;13.57;8.45;;;16.70;99.90;;;;;;6096703;23;20057;-90
2021/08/12 06:08:21;;;;;;;17.08;9.20;;;16.80;99.90;;;;;;6102370;23;20089;-92
2021/08/12 06:11:10;;;;;;;13.60;9.20;;;16.90;99.90;;;;;;6099740;23;20026;-91
2021/08/12 06:13:57;;;;;;;9.95;8.02;;;17.20;99.90;;;;;;6108276;23;20030;-90
2021/08/12 06:16:45;;;;;;;13.55;8.25;;;17.40;99.90;;;;;;6155597;23;20167;-92
2021/08/12 06:19:32;;;;;;;12.68;7.32;;;17.60;99.90;;;;;;6154782;23;20025;-91
2021/08/12 06:22:21;;;;;;;16.48;8.60;;;17.80;99.90;;;;;;6155107;23;20422;-91
2021/08/12 06:25:10;;;;;;;12.80;7.22;;;17.90;99.90;;;;;;6155017;23;20026;-91
2021/08/12 06:28:01;;;;;;;11.30;8.13;;;18.10;99.90;;;;;;6155857;23;20028;-91
2021/08/12 06:30:53;;;;;;;9.50;7.57;;;18.10;99.90;;;;;;6153439;23;20056;-89
2021/08/12 06:33:44;;;;;;;12.00;7.50;;;18.40;99.90;;;;;;6152401;23;20025;-91
2021/08/12 06:36:35;;;;;;;17.67;7.75;;;18.90;99.90;;;;;;6155831;23;20029;-89
2021/08/12 06:39:42;;;;;;;12.77;7.53;;;19.20;99.90;;;;;;6135011;23;20029;-91
2021/08/12 06:42:29;;;;;;;8.23;6.43;;;19.70;99.90;;;;;;6157829;23;20116;-92
2021/08/12 06:45:50;;;;;;;;;;;;;;;;;;;;;
2021/08/12 06:49:26;;;;;;;8.90;6.30;;;20.90;99.90;;;;;;6162106;23;20025;-93
2021/08/12 06:52:19;;;;;;;11.63;6.55;;;21.30;99.90;;;;;;6163726;23;20025;-92
2021/08/12 06:55:11;;;;;;;8.10;5.97;;;21.60;99.90;;;;;;6162918;23;20025;-92
2021/08/12 07:01:48;;;;;;;7.95;5.18;;;22.70;99.90;;;;;;6229209;22;20025;-93
2021/08/12 07:04:38;;;;;;;12.30;5.95;;;23.40;99.90;;;;;;6255189;23;20355;-92
2021/08/12 07:07:35;;;;;;;10.32;6.07;;;23.80;99.90;;;;;;6230639;23;20103;-93
2021/08/12 07:10:23;;;;;;;8.20;6.38;;;24.10;99.90;;;;;;6233049;23;20020;-91
2021/08/12 07:13:12;;;;;;;7.47;5.65;;;24.20;99.90;;;;;;6251944;23;20020;-91
2021/08/12 07:16:02;;;;;;;7.25;5.45;;;24.60;99.90;;;;;;6231442;23;20028;-93
2021/08/12 07:18:57;;;;;;;9.10;5.37;;;25.20;99.90;;;;;;6255208;22;20106;-93
2021/08/12 07:22:00;;;;;;;9.98;6.20;;;25.50;99.50;;;;;;6215565;23;20032;-93
2021/08/12 07:24:49;;;;;;;10.40;5.63;;;25.40;99.80;;;;;;6230957;23;20035;-92
2021/08/12 07:27:50;;;;;;;10.20;5.80;;;25.50;97.70;;;;;;6238623;23;20024;-92
2021/08/12 07:30:43;;;;;;;7.70;5.15;;;25.20;97.80;;;;;;6263230;23;20024;-92
2021/08/12 07:33:36;;;;;;;;;;;25.40;97.70;;;;;;6263438;23;20035;-92
2021/08/12 07:36:26;;;;;;;8.57;5.85;;;25.80;96.50;;;;;;6249604;22;19919;-91
2021/08/12 07:39:17;;;;;;;9.48;5.57;;;25.90;95.70;;;;;;6271099;22;20028;-90
2021/08/12 07:42:05;;;;;;;8.13;5.43;;;26.10;94.40;;;;;;6248459;23;20055;-91
2021/08/12 07:45:00;;;;;;;5.80;5.18;;;25.90;95.00;;;;;;6268131;22;20080;-90
2021/08/12 07:47:48;;;;;;;13.20;5.82;;;25.90;95.60;;;;;;6250473;22;20082;-92
2021/08/12 07:50:35;;;;;;;8.43;5.18;;;26.50;94.30;;;;;;6229483;22;20046;-90
2021/08/12 07:53:27;;;;;;;8.75;5.22;;;27.20;94.90;;;;;;6248980;23;20015;-92
2021/08/12 07:56:30;;;;;;;7.20;5.25;;;27.60;92.50;;;;;;6245588;23;20024;-92
2021/08/12 07:59:18;;;;;;;11.18;5.05;;;28.10;92.30;;;;;;6209406;23;20055;-91
2021/08/12 08:02:08;;;;;;;9.65;4.90;;;28.70;84.60;;;;;;6226521;22;20024;-93
2021/08/12 08:04:59;;;;;;;7.45;4.18;;;28.20;84.90;;;;;;6248404;23;20020;-91
2021/08/12 08:07:49;;;;;;;6.70;4.68;;;28.00;84.00;;;;;;6225276;23;20036;-92
2021/08/12 08:10:36;;;;;;;7.13;4.53;;;28.40;87.00;;;;;;6247185;23;20031;-93
2021/08/12 08:13:24;;;;;;;7.60;4.50;;;28.70;83.70;;;;;;6226299;23;20106;-93
2021/08/12 08:16:11;;;;;;;7.20;4.32;;;29.10;79.20;;;;;;6247382;23;20161;-92
2021/08/12 08:18:59;;;;;;;5.55;4.55;;;29.20;78.10;;;;;;6223629;23;20032;-91
2021/08/12 08:21:49;;;;;;;5.95;4.20;;;28.60;75.00;;;;;;6224564;23;20408;-92
2021/08/12 08:24:36;;;;;;;6.88;4.72;;;28.80;80.10;;;;;;6225906;23;20024;-93
2021/08/12 08:27:24;;;;;;;9.25;4.25;;;29.30;81.30;;;;;;6245230;23;20151;-91
2021/08/12 08:30:18;;;;;;;8.90;4.80;;;29.80;77.90;;;;;;6224035;23;20023;-91
2021/08/12 08:33:08;;;;;;;7.65;4.47;;;30.20;74.60;;;;;;6225994;23;20020;-92
2021/08/12 08:35:56;;;;;;;7.72;4.30;;;30.10;75.40;;;;;;6225336;23;20403;-91
2021/08/12 08:38:43;;;;;;;10.38;4.20;;;30.10;72.10;;;;;;6225938;23;20024;-91
2021/08/12 08:41:31;;;;;;;7.70;4.00;;;30.70;68.70;;;;;;6225016;23;20438;-90
2021/08/12 08:44:20;;;;;;;6.10;3.80;;;30.60;65.80;;;;;;6222382;23;20431;-90
2021/08/12 08:47:09;;;;;;;7.53;3.65;;;30.20;68.10;;;;;;6225796;23;20078;-91
2021/08/12 08:49:58;;;;;;;6.32;3.83;;;30.60;69.60;;;;;;6227482;23;20035;-93
2021/08/12 08:52:47;;;;;;;9.65;3.90;;;31.20;68.40;;;;;;6226752;22;20024;-93
2021/08/12 08:55:35;;;;;;;9.20;3.67;;;31.50;66.50;;;;;;6247686;23;20108;-92
2021/08/12 08:58:24;;;;;;;5.10;3.80;;;31.80;66.90;;;;;;6224276;23;20362;-92
2021/08/12 09:01:11;;;;;;;5.85;3.80;;;32.00;64.80;;;;;;6255219;23;20051;-92
2021/08/12 09:03:59;;;;;;;14.10;3.90;;;32.80;64.10;;;;;;6224904;23;20111;-91
2021/08/12 09:06:47;;;;;;;4.45;3.50;;;33.00;59.10;;;;;;6225562;23;20020;-92
2021/08/12 09:09:36;;;;;;;6.32;3.75;;;32.60;61.20;;;;;;6224715;23;20028;-91
2021/08/12 09:12:25;;;;;;;8.02;4.13;;;32.40;59.90;;;;;;6246454;23;20716;-91
2021/08/12 09:15:18;;;;;;;10.30;4.38;;;32.60;59.30;;;;;;6222327;23;20078;-92
2021/08/12 09:18:19;;;;;;;5.32;3.90;;;33.10;58.20;;;;;;6225715;23;20039;-91
2021/08/12 09:21:21;;;;;;;8.02;4.05;;;32.50;56.40;;;;;;6245341;23;20028;-91
2021/08/12 09:24:11;;;;;;;6.35;4.15;;;32.10;56.90;;;;;;6246089;23;20024;-91
2021/08/12 09:27:01;;;;;;;6.65;4.07;;;31.90;58.20;;;;;;6204680;23;20025;-93
2021/08/12 09:29:49;;;;;;;4.82;3.70;;;32.30;59.20;;;;;;6244108;23;20070;-92
2021/08/12 09:32:47;;;;;;;6.88;4.38;;;32.90;62.70;;;;;;6224751;23;20044;-92
2021/08/12 09:35:34;;;;;;;5.50;4.40;;;33.80;53.80;;;;;;6223134;23;20114;-91
2021/08/12 09:38:24;;;;;;;5.72;4.10;;;33.30;54.70;;;;;;6246630;23;20458;-93
2021/08/12 09:41:11;;;;;;;5.03;4.07;;;33.30;55.60;;;;;;6224504;23;20428;-91
2021/08/12 09:44:06;;;;;;;11.68;4.00;;;33.60;53.00;;;;;;6225355;23;20034;-92
2021/08/12 09:46:56;;;;;;;5.32;4.10;;;34.20;51.70;;;;;;6247959;23;20020;-93
2021/08/12 09:49:52;;;;;;;8.48;4.05;;;34.30;52.60;;;;;;6244296;23;20024;-92
2021/08/12 09:52:48;;;;;;;7.50;4.15;;;34.30;55.60;;;;;;6253013;23;20091;-91
2021/08/12 09:55:40;;;;;;;5.88;4.15;;;34.50;52.80;;;;;;6249201;23;20478;-89
2021/08/12 09:58:35;;;;;;;5.57;4.05;;;34.40;50.60;;;;;;6225563;23;20039;-89
2021/08/12 10:01:28;;;;;;;4.75;4.00;;;34.50;50.50;;;;;;6224471;23;20032;-92
2021/08/12 10:04:27;;;;;;;7.13;4.78;;;33.80;51.40;;;;;;6208013;23;20467;-93
2021/08/12 10:07:48;;;;;;;7.00;4.68;;;33.30;52.80;;;;;;6245651;23;20030;-91
2021/08/12 10:10:40;;;;;;;7.15;4.68;;;33.10;52.70;;;;;;6228213;23;20016;-90
2021/08/12 10:13:27;;;;;;;7.55;5.05;;;32.50;54.60;;;;;;6231312;23;20020;-91
2021/08/12 10:16:16;;;;;;;9.38;4.57;;;32.80;53.20;;;;;;6207761;23;20024;-90
2021/08/12 10:19:18;;;;;;;;;;;;;;;;;;;;;
2021/08/12 10:22:08;;;;;;;7.35;4.78;;;32.40;53.80;;;;;;6251959;23;20028;-91
2021/08/12 10:24:59;;;;;;;9.05;5.03;;;32.50;54.20;;;;;;6247987;23;20031;-92
2021/08/12 10:27:51;;;;;;;7.82;4.32;;;32.90;55.50;;;;;;6250702;22;20032;-90
2021/08/12 10:30:41;;;;;;;6.47;4.95;;;33.70;53.40;;;;;;6225244;23;20107;-91
2021/08/12 10:33:36;;;;;;;5.78;4.13;;;34.70;53.20;;;;;;6225697;23;20051;-90
2021/08/12 10:36:26;;;;;;;7.00;4.60;;;35.40;50.90;;;;;;6247554;22;20451;-92
2021/08/12 10:39:14;;;;;;;5.10;4.20;;;36.30;49.90;;;;;;6245131;23;20020;-89
2021/08/12 10:42:06;;;;;;;5.38;4.88;;;36.80;46.00;;;;;;6243012;23;20042;-90
2021/08/12 10:44:53;;;;;;;6.80;4.78;;;35.70;48.40;;;;;;6245564;23;20495;-90
2021/08/12 10:47:54;;;;;;;5.97;4.72;;;35.10;50.00;;;;;;6224690;23;20024;-90
2021/08/12 10:50:46;;;;;;;5.40;4.70;;;34.90;49.20;;;;;;6224088;23;20020;-92
2021/08/12 10:53:42;;;;;;;6.63;4.45;;;35.00;50.50;;;;;;6225377;23;20446;-91
2021/08/12 10:56:49;;;;;;;;;;;;;;;;;;;;;
2021/08/12 10:59:37;;;;;;;7.10;5.03;;;34.80;46.90;;;;;;6248164;22;20024;-88
2021/08/12 11:02:30;;;;;;;9.30;5.40;;;34.20;52.00;;;;;;6222331;22;20031;-89
2021/08/12 11:05:19;;;;;;;6.95;4.75;;;34.30;48.70;;;;;;6223331;23;20024;-91
2021/08/12 11:08:09;;;;;;;6.75;5.50;;;34.30;50.90;;;;;;6222715;23;20023;-92
2021/08/12 11:10:56;;;;;;;9.27;4.80;;;34.80;50.80;;;;;;6223098;23;20107;-92
2021/08/12 11:13:44;;;;;;;11.13;5.32;;;34.70;48.10;;;;;;6203449;23;20123;-91
2021/08/12 11:16:49;;;;;;;6.75;5.47;;;34.50;48.00;;;;;;6223521;23;20055;-90
2021/08/12 11:19:40;;;;;;;8.00;4.88;;;34.10;49.20;;;;;;6224901;23;20331;-91
2021/08/12 11:22:32;;;;;;;7.13;5.28;;;33.90;50.00;;;;;;6220994;23;20116;-91
2021/08/12 11:25:20;;;;;;;6.50;5.25;;;34.10;50.60;;;;;;6245787;23;20028;-89
2021/08/12 11:28:39;;;;;;;7.95;5.28;;;34.20;48.90;;;;;;6246229;23;20020;-89
2021/08/12 11:31:30;;;;;;;5.70;5.05;;;34.30;50.00;;;;;;6245826;23;20108;-89
2021/08/12 11:34:23;;;;;;;6.63;5.30;;;34.90;49.70;;;;;;6248298;22;20274;-88
2021/08/12 11:37:15;;;;;;;10.20;4.90;;;35.50;48.70;;;;;;6248467;22;20427;-88
2021/08/12 11:40:13;;;;;;;6.55;4.72;;;35.50;47.20;;;;;;6246824;23;20102;-88
2021/08/12 11:43:01;;;;;;;9.32;5.03;;;36.00;46.50;;;;;;6226138;23;20020;-89
2021/08/12 11:45:52;;;;;;;8.07;5.32;;;35.90;46.40;;;;;;6223956;23;20020;-88
2021/08/12 11:48:40;;;;;;;6.70;5.40;;;35.90;46.30;;;;;;6203070;23;20119;-91
2021/08/12 11:51:31;;;;;;;8.43;5.15;;;35.30;48.30;;;;;;6225383;23;20421;-90
2021/08/12 11:54:26;;;;;;;6.50;4.90;;;35.40;46.70;;;;;;6224816;23;20024;-90
2021/08/12 11:57:19;;;;;;;10.23;4.85;;;35.80;46.10;;;;;;6223252;23;20045;-89
2021/08/12 12:00:11;;;;;;;6.38;5.07;;;35.70;45.70;;;;;;6227543;23;20035;-87
2021/08/12 12:03:06;;;;;;;7.93;5.10;;;35.70;48.50;;;;;;6227814;23;20112;-89
2021/08/12 12:05:53;;;;;;;8.07;4.78;;;36.60;47.90;;;;;;6227182;23;20028;-91
2021/08/12 12:08:44;;;;;;;7.53;4.72;;;37.50;42.80;;;;;;6225834;23;20024;-89
2021/08/12 12:11:39;;;;;;;7.45;5.65;;;37.90;43.20;;;;;;6225641;23;20419;-89
2021/08/12 12:14:35;;;;;;;9.93;4.97;;;37.50;43.00;;;;;;6187020;23;20404;-91
2021/08/12 12:17:25;;;;;;;6.25;4.93;;;38.60;42.10;;;;;;6223827;23;20089;-89
2021/08/12 12:20:16;;;;;;;5.40;4.82;;;38.90;40.90;;;;;;6223247;23;20042;-88
2021/08/12 12:23:08;;;;;;;6.50;4.60;;;38.60;40.60;;;;;;6221870;23;20031;-91
2021/08/12 12:25:56;;;;;;;7.20;5.30;;;38.70;41.40;;;;;;6224998;23;20024;-89
2021/08/12 12:28:49;;;;;;;7.93;5.05;;;38.70;41.00;;;;;;6224260;23;20025;-90
2021/08/12 12:31:38;;;;;;;9.77;5.00;;;39.60;38.70;;;;;;6223530;23;20031;-88
2021/08/12 12:34:26;;;;;;;6.20;4.90;;;39.50;39.80;;;;;;6246687;23;20322;-91
2021/08/12 12:37:13;;;;;;;7.85;5.10;;;39.20;40.40;;;;;;6223214;23;20024;-93
2021/08/12 12:40:03;;;;;;;6.38;4.78;;;39.40;39.30;;;;;;6245073;23;20024;-92
2021/08/12 12:42:53;;;;;;;5.45;4.80;;;39.70;39.70;;;;;;6227267;23;20031;-92
2021/08/12 12:45:43;;;;;;;5.28;4.75;;;40.20;38.60;;;;;;6224683;23;20024;-93
2021/08/12 12:48:33;;;;;;;7.82;4.90;;;40.50;40.10;;;;;;6221008;23;20050;-90
2021/08/12 12:51:28;;;;;;;5.03;4.53;;;40.90;36.60;;;;;;6224060;23;20585;-88
2021/08/12 12:54:27;;;;;;;5.22;4.72;;;41.30;35.20;;;;;;6222867;23;20111;-91
2021/08/12 12:57:32;;;;;;;6.30;4.53;;;40.30;38.20;;;;;;6242913;23;20427;-92
2021/08/12 13:00:34;;;;;;;5.30;4.20;;;40.80;36.90;;;;;;6226297;23;20038;-90
2021/08/12 13:03:39;;;;;;;5.20;4.70;;;41.10;36.20;;;;;;6250914;23;20403;-92
2021/08/12 13:06:36;;;;;;;5.38;4.82;;;41.40;34.60;;;;;;6238095;23;20106;-91
2021/08/12 13:09:38;;;;;;;4.80;4.40;;;41.20;34.80;;;;;;6260486;23;20055;-88
2021/08/12 13:12:59;;;;;;;5.05;4.55;;;41.20;34.90;;;;;;6248055;22;20072;-93
2021/08/12 13:15:50;;;;;;;5.13;4.63;;;41.70;33.00;;;;;;6250017;22;20024;-92
2021/08/12 13:19:00;;;;;;;5.25;4.80;;;41.90;33.20;;;;;;6267209;22;20019;-91
2021/08/12 13:21:49;;;;;;;6.50;4.63;;;41.30;33.70;;;;;;6247143;22;20297;-91
2021/08/12 13:24:42;;;;;;;7.78;4.80;;;40.60;34.40;;;;;;6239302;23;20082;-89
2021/08/12 13:27:47;;;;;;;6.32;4.95;;;39.90;33.90;;;;;;6239229;23;20034;-89
2021/08/12 13:30:38;;;;;;;7.63;4.57;;;39.80;35.70;;;;;;6226271;23;20024;-90
2021/08/12 13:33:27;;;;;;;9.60;5.22;;;39.60;36.30;;;;;;6248216;23;20024;-88
2021/08/12 13:36:15;;;;;;;5.88;5.22;;;39.10;34.60;;;;;;6223898;23;20032;-91
2021/08/12 13:39:04;;;;;;;5.82;5.15;;;39.10;35.40;;;;;;6223607;23;20032;-91
2021/08/12 13:41:58;;;;;;;6.30;4.90;;;38.90;36.10;;;;;;6222888;23;20339;-90
2021/08/12 13:44:46;;;;;;;8.25;4.95;;;39.00;35.70;;;;;;6246734;23;20090;-90
2021/08/12 13:47:34;;;;;;;7.57;4.82;;;39.00;35.10;;;;;;6225112;23;20031;-89
2021/08/12 13:50:22;;;;;;;5.30;4.80;;;39.60;34.60;;;;;;6203558;23;20089;-89
2021/08/12 13:53:10;;;;;;;6.15;4.90;;;39.30;34.10;;;;;;6223403;23;20423;-90
2021/08/12 13:55:57;;;;;;;10.35;5.60;;;38.50;33.60;;;;;;6246129;23;20028;-89
2021/08/12 13:58:45;;;;;;;6.30;5.05;;;37.70;36.40;;;;;;6223406;23;20129;-92
2021/08/12 14:01:33;;;;;;;8.13;5.95;;;38.00;39.10;;;;;;6203897;23;20478;-89
2021/08/12 14:04:22;;;;;;;6.93;4.70;;;38.80;36.10;;;;;;6223861;23;20051;-90
2021/08/12 14:07:10;;;;;;;5.38;4.85;;;39.10;36.60;;;;;;6223624;23;20113;-90
2021/08/12 14:09:57;;;;;;;6.03;5.03;;;39.80;36.50;;;;;;6223848;23;20125;-91
2021/08/12 14:12:45;;;;;;;5.88;4.82;;;40.20;34.30;;;;;;6223507;23;20024;-90
2021/08/12 14:15:33;;;;;;;8.73;5.30;;;40.40;34.80;;;;;;6203060;23;20028;-91
2021/08/12 14:18:20;;;;;;;10.27;5.43;;;39.90;34.40;;;;;;6225111;23;20047;-91
2021/08/12 14:21:10;;;;;;;6.72;4.78;;;40.30;34.40;;;;;;6224455;23;20287;-92
2021/08/12 14:23:59;;;;;;;7.10;4.75;;;40.40;33.70;;;;;;6223447;23;20032;-90
2021/08/12 14:26:46;;;;;;;5.03;4.53;;;40.40;32.50;;;;;;6226862;23;20042;-91
2021/08/12 14:29:35;;;;;;;5.93;4.90;;;40.00;34.60;;;;;;6226947;23;20028;-90
2021/08/12 14:32:22;;;;;;;5.43;4.82;;;40.70;32.00;;;;;;6229379;23;20028;-91
2021/08/12 14:35:10;;;;;;;5.43;4.90;;;40.40;36.00;;;;;;6214732;23;20016;-91
2021/08/12 14:38:06;;;;;;;6.90;5.50;;;40.60;33.90;;;;;;6236279;23;20024;-91
2021/08/12 14:40:58;;;;;;;8.82;4.57;;;40.50;36.30;;;;;;6243491;23;20028;-90
2021/08/12 14:43:47;;;;;;;7.85;5.20;;;40.50;33.20;;;;;;6261374;23;20020;-90
2021/08/12 14:46:34;;;;;;;7.00;4.95;;;40.40;33.60;;;;;;6238141;23;20023;-91
2021/08/12 14:49:22;;;;;;;5.45;4.90;;;40.30;33.40;;;;;;6259595;23;20106;-93
2021/08/12 14:52:09;;;;;;;6.50;5.05;;;39.90;35.10;;;;;;6252066;22;20056;-93
2021/08/12 14:54:57;;;;;;;5.32;4.68;;;39.60;34.80;;;;;;6225861;23;20092;-91
2021/08/12 14:57:48;;;;;;;8.00;5.35;;;39.80;34.50;;;;;;6246558;23;20103;-89
2021/08/12 15:00:38;;;;;;;7.57;5.40;;;40.00;34.20;;;;;;6247368;23;20035;-92
2021/08/12 15:03:35;;;;;;;5.63;4.93;;;39.60;36.70;;;;;;6208052;23;20027;-93
2021/08/12 15:06:40;;;;;;;6.55;4.90;;;39.90;34.00;;;;;;6234232;23;20032;-93
2021/08/12 15:09:35;;;;;;;6.05;5.20;;;40.30;33.60;;;;;;6245124;23;20171;-93
2021/08/12 15:12:22;;;;;;;6.50;5.13;;;39.60;34.60;;;;;;6223438;23;20107;-91
2021/08/12 15:15:10;;;;;;;7.68;5.47;;;39.10;35.70;;;;;;6222457;23;20047;-92
2021/08/12 15:18:01;;;;;;;7.68;5.07;;;39.00;35.70;;;;;;6222064;23;20418;-92
2021/08/12 15:20:48;;;;;;;6.45;5.07;;;38.80;35.80;;;;;;6225480;23;20096;-90
2021/08/12 15:23:37;;;;;;;7.35;5.13;;;38.80;34.80;;;;;;6220833;23;20054;-90
2021/08/12 15:26:25;;;;;;;7.25;5.43;;;39.10;34.50;;;;;;6244019;23;20032;-92
2021/08/12 15:29:13;;;;;;;8.65;5.45;;;39.30;33.60;;;;;;6223960;23;20040;-91
2021/08/12 15:32:01;;;;;;;7.20;5.25;;;38.90;34.80;;;;;;6244161;23;20070;-91
2021/08/12 15:34:50;;;;;;;7.43;5.63;;;38.60;35.40;;;;;;6244154;23;20419;-90
2021/08/12 15:37:37;;;;;;;8.10;5.57;;;38.20;36.50;;;;;;6234519;22;20028;-92
2021/08/12 15:40:25;;;;;;;6.43;5.82;;;38.00;36.40;;;;;;6245259;23;20028;-92
2021/08/12 15:43:13;;;;;;;8.27;5.20;;;38.00;37.50;;;;;;6247770;22;20043;-92
2021/08/12 15:46:07;;;;;;;8.43;5.25;;;37.80;37.80;;;;;;6245627;23;20030;-91
2021/08/12 15:48:59;;;;;;;7.18;5.50;;;37.40;37.60;;;;;;6220165;23;20036;-93
2021/08/12 15:51:46;;;;;;;;;;;37.10;40.40;;;;;;6243809;23;20024;-91
2021/08/12 15:54:36;;;;;;;7.55;5.85;;;37.30;39.00;;;;;;6223878;23;19927;-90
2021/08/12 15:57:24;;;;;;;7.18;5.25;;;37.10;38.80;;;;;;6223978;23;20040;-92